createdAt,value
2022-10-04T00:02:28.328Z,31.35
2022-10-04T00:09:08.693Z,31.46
2022-10-04T00:11:37.620Z,31.48
2022-10-04T00:14:10.283Z,31.69
2022-10-04T00:16:40.276Z,31.57
2022-10-04T00:19:19.619Z,31.48
2022-10-04T00:21:53.472Z,31.40
2022-10-04T00:24:22.211Z,31.46
2022-10-04T00:26:49.338Z,31.60
2022-10-04T00:29:31.988Z,31.39
2022-10-04T00:32:24.216Z,31.57
2022-10-04T00:34:52.635Z,31.62
2022-10-04T00:37:21.345Z,31.63
2022-10-04T00:39:59.553Z,31.57
2022-10-04T00:42:45.483Z,31.43
2022-10-04T00:45:20.781Z,31.61
2022-10-04T00:47:48.025Z,31.58
2022-10-04T00:50:20.789Z,31.62
2022-10-04T00:52:51.728Z,31.56
2022-10-04T00:55:34.701Z,31.76
2022-10-04T00:58:04.580Z,31.41
2022-10-04T01:00:35.415Z,31.53
2022-10-04T01:03:08.765Z,31.47
2022-10-04T01:05:44.628Z,31.34
2022-10-04T01:08:14.193Z,31.39
2022-10-04T01:10:41.360Z,31.44
2022-10-04T01:13:14.742Z,31.37
2022-10-04T01:15:50.907Z,31.48
2022-10-04T01:18:20.987Z,31.34
2022-10-04T01:20:48.310Z,31.32
2022-10-04T01:23:51.114Z,31.55
2022-10-04T01:26:30.542Z,31.37
2022-10-04T01:28:59.186Z,31.40
2022-10-04T01:31:27.028Z,31.12
2022-10-04T01:33:54.781Z,31.19
2022-10-04T01:36:22.467Z,31.20
2022-10-04T01:38:50.929Z,31.25
2022-10-04T01:41:21.825Z,31.07
2022-10-04T01:43:50.620Z,31.00
2022-10-04T01:46:22.811Z,31.16
2022-10-04T01:48:50.095Z,30.95
2022-10-04T01:51:24.472Z,31.25
2022-10-04T01:53:58.430Z,30.98
2022-10-04T01:56:46.974Z,30.85
2022-10-04T01:59:17.198Z,31.35
2022-10-04T02:01:49.833Z,31.32
2022-10-04T02:04:22.324Z,31.15
2022-10-04T02:06:53.735Z,31.06
2022-10-04T02:09:23.858Z,30.85
2022-10-04T02:11:53.224Z,31.27
2022-10-04T02:14:25.464Z,30.84
2022-10-04T02:16:54.018Z,30.98
2022-10-04T02:19:27.593Z,30.91
2022-10-04T02:21:56.171Z,30.80
2022-10-04T02:24:23.495Z,30.83
2022-10-04T02:26:51.835Z,30.59
2022-10-04T02:29:20.211Z,31.18
2022-10-04T02:32:07.273Z,30.69
2022-10-04T02:34:34.793Z,30.99
2022-10-04T02:37:04.146Z,31.14
2022-10-04T02:39:40.546Z,30.99
2022-10-04T02:42:36.957Z,30.82
2022-10-04T02:45:15.407Z,30.54
2022-10-04T02:48:02.866Z,30.35
2022-10-04T02:50:40.125Z,30.81
2022-10-04T02:53:19.176Z,30.86
2022-10-04T02:55:47.733Z,30.67
2022-10-04T02:58:18.347Z,30.66
2022-10-04T03:00:50.819Z,30.47
2022-10-04T03:03:18.180Z,30.77
2022-10-04T03:05:48.059Z,30.37
2022-10-04T03:08:15.541Z,30.68
2022-10-04T03:10:43.251Z,30.39
2022-10-04T03:13:12.257Z,30.61
2022-10-04T03:15:39.908Z,30.59
2022-10-04T03:18:07.281Z,30.57
2022-10-04T03:20:37.138Z,30.34
2022-10-04T03:23:04.683Z,30.71
2022-10-04T03:25:50.519Z,30.54
2022-10-04T03:28:18.331Z,30.65
2022-10-04T03:30:46.656Z,30.60
2022-10-04T03:33:17.146Z,30.88
2022-10-04T03:35:46.280Z,30.83
2022-10-04T03:38:14.494Z,30.53
2022-10-04T03:40:45.376Z,30.68
2022-10-04T03:43:14.146Z,30.49
2022-10-04T03:45:41.901Z,30.53
2022-10-04T03:48:13.177Z,30.70
2022-10-04T03:50:46.356Z,30.62
2022-10-04T03:53:32.529Z,30.90
2022-10-04T03:56:04.259Z,31.04
2022-10-04T03:58:32.121Z,31.05
2022-10-04T04:01:00.599Z,30.83
2022-10-04T04:03:30.020Z,30.90
2022-10-04T04:06:03.473Z,31.06
2022-10-04T04:08:33.916Z,30.58
2022-10-04T04:11:03.151Z,30.59
2022-10-04T04:13:47.465Z,30.75
2022-10-04T04:16:15.224Z,30.58
2022-10-04T04:18:44.696Z,31.05
2022-10-04T04:21:15.660Z,30.92
2022-10-04T04:23:48.766Z,30.68
2022-10-04T04:26:35.311Z,30.81
2022-10-04T04:29:11.717Z,31.06
2022-10-04T04:31:47.364Z,31.10
2022-10-04T04:34:20.540Z,30.99
2022-10-04T04:36:48.404Z,30.95
2022-10-04T04:39:34.309Z,31.14
2022-10-04T04:42:03.009Z,31.01
2022-10-04T04:44:30.248Z,30.89
2022-10-04T04:47:00.604Z,30.95
2022-10-04T04:49:31.375Z,31.05
2022-10-04T04:51:58.635Z,31.04
2022-10-04T04:54:27.449Z,30.62
2022-10-04T04:56:55.688Z,30.83
2022-10-04T04:59:24.227Z,30.88
2022-10-04T05:01:51.509Z,31.02
2022-10-04T05:04:21.351Z,30.99
2022-10-04T05:06:59.233Z,30.71
2022-10-04T05:09:30.527Z,30.98
2022-10-04T05:12:15.917Z,31.24
2022-10-04T05:14:48.194Z,30.98
2022-10-04T05:17:20.167Z,31.00
2022-10-04T05:19:47.495Z,31.25
2022-10-04T05:22:18.085Z,31.14
2022-10-04T05:24:47.061Z,31.26
2022-10-04T05:27:18.808Z,31.26
2022-10-04T05:29:59.379Z,31.14
2022-10-04T05:33:05.349Z,31.14
2022-10-04T05:35:59.023Z,31.34
2022-10-04T05:38:29.208Z,31.43
2022-10-04T05:41:04.216Z,31.29
2022-10-04T05:43:34.809Z,31.16
2022-10-04T05:46:34.484Z,31.37
2022-10-04T05:49:28.311Z,31.28
2022-10-04T05:51:56.722Z,30.96
2022-10-04T05:54:26.413Z,31.25
2022-10-04T05:57:00.168Z,31.55
2022-10-04T05:59:30.509Z,31.11
2022-10-04T06:02:12.877Z,31.07
2022-10-04T06:05:00.111Z,30.96
2022-10-04T06:07:33.033Z,31.26
2022-10-04T06:10:19.300Z,31.00
2022-10-04T06:13:05.155Z,31.40
2022-10-04T06:15:35.178Z,31.23
2022-10-04T06:18:16.133Z,31.23
2022-10-04T06:20:43.822Z,31.29
2022-10-04T06:23:15.977Z,30.89
2022-10-04T06:25:43.261Z,31.05
2022-10-04T06:28:13.293Z,31.30
2022-10-04T06:30:53.769Z,31.46
2022-10-04T06:33:28.977Z,31.10
2022-10-04T06:36:06.342Z,31.14
2022-10-04T06:38:33.621Z,31.16
2022-10-04T06:41:00.925Z,31.10
2022-10-04T06:43:57.078Z,31.33
2022-10-04T06:46:31.656Z,31.08
2022-10-04T06:48:58.968Z,31.16
2022-10-04T06:51:45.129Z,31.51
2022-10-04T06:54:21.826Z,31.22
2022-10-04T06:56:56.033Z,31.06
2022-10-04T06:59:36.341Z,30.92
2022-10-04T07:02:13.218Z,30.98
2022-10-04T07:05:09.402Z,30.70
2022-10-04T07:07:38.813Z,30.53
2022-10-04T07:10:21.883Z,31.07
2022-10-04T07:13:12.379Z,31.28
2022-10-04T07:15:45.259Z,31.25
2022-10-04T07:18:15.832Z,31.06
2022-10-04T07:20:43.351Z,31.26
2022-10-04T07:23:16.693Z,31.09
2022-10-04T07:25:46.230Z,30.93
2022-10-04T07:28:35.575Z,31.42
2022-10-04T07:31:06.414Z,31.53
2022-10-04T07:33:36.758Z,31.68
2022-10-04T07:36:08.766Z,31.55
2022-10-04T07:38:38.703Z,31.49
2022-10-04T07:41:07.649Z,31.34
2022-10-04T07:43:56.266Z,31.68
2022-10-04T07:46:41.942Z,31.92
2022-10-04T07:49:14.113Z,31.61
2022-10-04T07:51:41.781Z,31.21
2022-10-04T07:54:10.369Z,31.69
2022-10-04T07:56:41.281Z,31.69
2022-10-04T07:59:18.541Z,31.93
2022-10-04T08:02:07.340Z,31.93
2022-10-04T08:04:45.095Z,31.84
2022-10-04T08:07:21.831Z,31.91
2022-10-04T08:10:15.487Z,31.93
2022-10-04T08:12:49.109Z,31.97
2022-10-04T08:15:19.651Z,31.57
2022-10-04T08:18:02.124Z,31.84
2022-10-04T08:20:38.590Z,31.48
2022-10-04T08:23:14.864Z,31.71
2022-10-04T08:26:07.213Z,31.79
2022-10-04T08:29:03.637Z,31.23
2022-10-04T08:31:30.970Z,31.79
2022-10-04T08:34:08.808Z,31.87
2022-10-04T08:36:36.112Z,31.91
2022-10-04T08:39:06.633Z,31.71
2022-10-04T08:41:40.068Z,32.00
2022-10-04T08:44:27.923Z,32.01
2022-10-04T08:47:00.995Z,31.75
2022-10-04T08:49:31.685Z,31.75
2022-10-04T08:51:59.012Z,31.58
2022-10-04T08:54:43.284Z,31.92
2022-10-04T08:57:33.757Z,31.93
2022-10-04T09:00:15.904Z,31.70
2022-10-04T09:03:01.897Z,31.88
2022-10-04T09:05:46.698Z,32.07
2022-10-04T09:08:35.923Z,31.62
2022-10-04T09:11:21.779Z,31.73
2022-10-04T09:13:52.191Z,31.83
2022-10-04T09:16:24.985Z,31.68
2022-10-04T09:19:00.442Z,31.61
2022-10-04T09:21:28.145Z,31.65
2022-10-04T09:24:04.496Z,31.68
2022-10-04T09:26:41.630Z,31.51
2022-10-04T09:29:16.206Z,31.79
2022-10-04T09:31:51.973Z,31.46
2022-10-04T09:34:23.387Z,31.12
2022-10-04T09:37:17.844Z,31.72
2022-10-04T09:40:03.997Z,31.48
2022-10-04T09:42:40.658Z,31.33
2022-10-04T09:45:27.562Z,31.77
2022-10-04T09:48:09.443Z,31.57
2022-10-04T09:50:57.005Z,31.79
2022-10-04T09:53:45.218Z,31.53
2022-10-04T09:56:15.165Z,31.33
2022-10-04T09:58:54.827Z,31.60
2022-10-04T10:01:23.201Z,31.68
2022-10-04T10:03:53.788Z,31.61
2022-10-04T10:06:30.009Z,31.81
2022-10-04T10:09:09.448Z,31.72
2022-10-04T10:12:07.372Z,31.59
2022-10-04T10:14:37.366Z,31.95
2022-10-04T10:17:11.038Z,31.92
2022-10-04T10:19:41.496Z,31.72
2022-10-04T10:22:15.006Z,31.73
2022-10-04T10:24:58.562Z,31.28
2022-10-04T10:27:26.057Z,31.38
2022-10-04T10:29:53.193Z,31.39
2022-10-04T10:32:35.621Z,31.64
2022-10-04T10:35:21.616Z,31.62
2022-10-04T10:37:55.064Z,31.46
2022-10-04T10:40:41.800Z,31.74
2022-10-04T10:43:09.136Z,31.92
2022-10-04T10:45:36.273Z,31.84
2022-10-04T10:48:14.500Z,31.75
2022-10-04T10:51:00.265Z,31.82
2022-10-04T10:53:52.600Z,31.81
2022-10-04T10:56:38.596Z,31.42
2022-10-04T10:59:24.852Z,31.77
2022-10-04T11:02:10.565Z,31.62
2022-10-04T11:04:41.132Z,31.93
2022-10-04T11:07:26.804Z,31.81
2022-10-04T11:10:14.367Z,31.55
2022-10-04T11:12:41.662Z,31.59
2022-10-04T11:15:27.813Z,31.78
2022-10-04T11:18:04.117Z,31.70
2022-10-04T11:20:34.200Z,32.02
2022-10-04T11:23:20.191Z,31.70
2022-10-04T11:25:57.739Z,31.77
2022-10-04T11:28:31.739Z,31.89
2022-10-04T11:30:59.242Z,31.73
2022-10-04T11:33:36.668Z,31.65
2022-10-04T11:36:12.927Z,31.92
2022-10-04T11:38:58.590Z,31.71
2022-10-04T11:41:31.854Z,31.62
2022-10-04T11:44:01.965Z,31.72
2022-10-04T11:46:40.779Z,31.55
2022-10-04T11:49:26.570Z,31.86
2022-10-04T11:52:02.025Z,31.32
2022-10-04T11:54:35.919Z,31.61
2022-10-04T11:57:22.054Z,31.56
2022-10-04T11:59:55.369Z,31.42
2022-10-04T12:02:27.137Z,31.67
2022-10-04T12:05:13.432Z,31.65
2022-10-04T12:07:40.782Z,31.67
2022-10-04T12:10:20.269Z,31.89
2022-10-04T12:12:47.664Z,31.58
2022-10-04T12:15:28.069Z,31.75
2022-10-04T12:17:58.159Z,31.91
2022-10-04T12:20:27.461Z,31.40
2022-10-04T12:23:00.747Z,31.60
2022-10-04T12:25:30.889Z,31.50
2022-10-04T12:28:11.845Z,32.02
2022-10-04T12:30:42.396Z,31.96
2022-10-04T12:33:20.240Z,31.93
2022-10-04T12:36:01.681Z,31.63
2022-10-04T12:38:58.387Z,31.75
2022-10-04T12:41:45.995Z,31.73
2022-10-04T12:44:34.183Z,32.02
2022-10-04T12:47:24.647Z,31.55
2022-10-04T12:50:02.817Z,31.40
2022-10-04T12:52:39.258Z,31.82
2022-10-04T12:55:09.403Z,31.74
2022-10-04T12:57:42.769Z,31.82
2022-10-04T13:00:23.991Z,31.94
2022-10-04T13:03:09.934Z,31.71
2022-10-04T13:05:53.190Z,31.95
2022-10-04T13:08:39.945Z,32.16
2022-10-04T13:11:20.803Z,32.32
2022-10-04T13:14:03.229Z,32.14
2022-10-04T13:19:23.322Z,32.07
2022-10-04T13:22:08.790Z,32.30
2022-10-04T13:24:58.161Z,32.14
2022-10-04T13:27:31.219Z,32.06
2022-10-04T13:30:16.777Z,32.07
2022-10-04T13:32:58.753Z,32.36
2022-10-04T13:35:26.049Z,32.25
2022-10-04T13:38:01.314Z,31.90
2022-10-04T13:40:47.521Z,32.26
2022-10-04T13:43:28.307Z,32.29
2022-10-04T13:46:24.693Z,32.26
2022-10-04T13:49:10.588Z,32.08
2022-10-04T13:52:16.776Z,32.35
2022-10-04T13:55:25.881Z,32.28
2022-10-04T13:57:59.475Z,32.18
2022-10-04T14:00:29.503Z,32.21
2022-10-04T14:02:56.831Z,31.93
2022-10-04T14:05:37.894Z,32.08
2022-10-04T14:08:40.620Z,32.07
2022-10-04T14:11:09.394Z,32.19
2022-10-04T14:13:43.160Z,31.94
2022-10-04T14:16:26.070Z,31.88
2022-10-04T14:18:56.137Z,32.09
2022-10-04T14:21:35.142Z,31.95
2022-10-04T14:24:02.938Z,31.85
2022-10-04T14:26:48.652Z,32.06
2022-10-04T14:29:18.838Z,31.87
2022-10-04T14:32:13.583Z,31.91
2022-10-04T14:34:43.707Z,31.95
2022-10-04T14:37:26.098Z,32.12
2022-10-04T14:40:12.327Z,31.86
2022-10-04T14:42:58.542Z,31.75
2022-10-04T14:45:44.497Z,31.91
2022-10-04T14:48:20.884Z,31.79
2022-10-04T14:50:48.212Z,31.63
2022-10-04T14:53:15.382Z,31.84
2022-10-04T14:55:49.287Z,31.56
2022-10-04T14:58:26.988Z,31.59
2022-10-04T15:01:12.571Z,31.70
2022-10-04T15:04:11.301Z,31.73
2022-10-04T15:06:43.009Z,31.70
2022-10-04T15:09:20.962Z,31.81
2022-10-04T15:12:21.764Z,31.91
2022-10-04T15:14:43.252Z,31.60
2022-10-04T15:17:24.895Z,32.08
2022-10-04T15:20:03.477Z,31.85
2022-10-04T15:22:38.208Z,31.67
2022-10-04T15:25:25.381Z,31.75
2022-10-04T15:27:56.196Z,32.03
2022-10-04T15:30:37.334Z,31.98
2022-10-04T15:33:07.399Z,31.89
2022-10-04T15:35:47.124Z,31.72
2022-10-04T15:38:14.383Z,31.85
2022-10-04T15:40:47.520Z,31.65
2022-10-04T15:43:24.001Z,31.67
2022-10-04T15:45:51.283Z,31.73
2022-10-04T15:48:33.850Z,31.83
2022-10-04T15:51:14.874Z,31.70
2022-10-04T15:53:48.195Z,31.50
2022-10-04T15:56:18.351Z,31.61
2022-10-04T15:59:04.108Z,31.51
2022-10-04T16:01:45.856Z,31.62
2022-10-04T16:04:32.613Z,31.65
2022-10-04T16:07:24.651Z,31.29
2022-10-04T16:09:58.132Z,31.48
2022-10-04T16:12:25.455Z,31.90
2022-10-04T16:14:53.523Z,31.60
2022-10-04T16:17:32.590Z,31.68
2022-10-04T16:20:06.186Z,31.66
2022-10-04T16:22:34.894Z,31.63
2022-10-04T16:25:16.996Z,31.82
2022-10-04T16:27:44.348Z,31.66
2022-10-04T16:30:28.135Z,31.70
2022-10-04T16:32:59.127Z,31.58
2022-10-04T16:35:39.407Z,31.77
2022-10-04T16:38:12.516Z,31.83
2022-10-04T16:40:51.595Z,31.65
2022-10-04T16:43:18.957Z,31.91
2022-10-04T16:46:25.287Z,31.99
2022-10-04T16:49:20.569Z,31.88
2022-10-04T16:51:47.736Z,31.81
2022-10-04T16:54:26.982Z,31.81
2022-10-04T16:56:56.412Z,31.87
2022-10-04T16:59:38.934Z,31.64
2022-10-04T17:02:29.300Z,32.05
2022-10-04T17:05:15.370Z,31.75
2022-10-04T17:07:51.443Z,31.87
2022-10-04T17:10:37.516Z,31.90
2022-10-04T17:13:17.343Z,31.77
2022-10-04T17:15:50.666Z,31.52
2022-10-04T17:18:19.351Z,31.86
2022-10-04T17:21:21.928Z,32.01
2022-10-04T17:23:58.290Z,31.64
2022-10-04T17:26:44.702Z,31.93
2022-10-04T17:29:18.388Z,31.79
2022-10-04T17:32:01.280Z,31.82
2022-10-04T17:35:01.097Z,32.36
2022-10-04T17:37:44.768Z,31.74
2022-10-04T17:40:12.093Z,31.59
2022-10-04T17:43:00.207Z,32.12
2022-10-04T17:45:27.688Z,31.88
2022-10-04T17:48:20.732Z,31.97
2022-10-04T17:51:20.685Z,31.93
2022-10-04T17:54:16.262Z,31.90
2022-10-04T17:56:48.203Z,31.89
2022-10-04T17:59:22.436Z,31.92
2022-10-04T18:02:09.733Z,31.96
2022-10-04T18:04:40.497Z,31.68
2022-10-04T18:07:16.552Z,31.94
2022-10-04T18:09:47.642Z,31.92
2022-10-04T18:12:53.565Z,31.79
2022-10-04T18:15:22.562Z,31.88
2022-10-04T18:17:50.443Z,31.77
2022-10-04T18:20:27.704Z,31.91
2022-10-04T18:23:02.967Z,31.73
2022-10-04T18:25:32.240Z,31.70
2022-10-04T18:27:59.482Z,31.67
2022-10-04T18:30:26.843Z,31.78
2022-10-04T18:32:55.143Z,31.59
2022-10-04T18:35:32.621Z,31.62
2022-10-04T18:38:05.818Z,31.72
2022-10-04T18:40:41.501Z,31.84
2022-10-04T18:43:27.495Z,31.89
2022-10-04T18:46:04.488Z,31.57
2022-10-04T18:48:39.487Z,31.78
2022-10-04T18:51:37.789Z,31.78
2022-10-04T18:54:14.344Z,31.71
2022-10-04T18:56:57.994Z,31.67
2022-10-04T18:59:53.174Z,31.88
2022-10-04T19:02:34.915Z,31.85
2022-10-04T19:05:02.670Z,31.89
2022-10-04T19:07:49.186Z,31.70
2022-10-04T19:10:28.644Z,31.75
2022-10-04T19:12:55.842Z,31.66
2022-10-04T19:15:25.820Z,31.60
2022-10-04T19:17:56.240Z,31.66
2022-10-04T19:20:28.732Z,31.76
2022-10-04T19:22:56.072Z,31.96
2022-10-04T19:25:32.503Z,31.63
2022-10-04T19:28:00.829Z,31.55
2022-10-04T19:30:48.358Z,31.58
2022-10-04T19:33:34.496Z,31.50
2022-10-04T19:36:14.103Z,31.68
2022-10-04T19:38:44.782Z,31.66
2022-10-04T19:41:12.393Z,31.95
2022-10-04T19:43:58.835Z,31.98
2022-10-04T19:46:26.195Z,31.73
2022-10-04T19:48:54.064Z,31.78
2022-10-04T19:51:25.821Z,31.75
2022-10-04T19:53:58.000Z,31.66
2022-10-04T19:56:29.611Z,31.67
2022-10-04T19:59:10.651Z,31.83
2022-10-04T20:01:38.856Z,31.59
2022-10-04T20:04:35.023Z,31.76
2022-10-04T20:07:03.763Z,31.67
2022-10-04T20:09:30.948Z,31.77
2022-10-04T20:11:58.608Z,31.51
2022-10-04T20:14:28.602Z,31.45
2022-10-04T20:17:03.093Z,31.68
2022-10-04T20:19:30.397Z,31.45
2022-10-04T20:22:12.914Z,31.48
2022-10-04T20:24:40.578Z,31.50
2022-10-04T20:27:30.380Z,31.46
2022-10-04T20:29:59.293Z,31.55
2022-10-04T20:32:26.454Z,31.47
2022-10-04T20:34:54.874Z,31.41
2022-10-04T20:37:22.132Z,31.36
2022-10-04T20:39:56.465Z,31.52
2022-10-04T20:42:34.457Z,31.56
2022-10-04T20:45:01.898Z,31.43
2022-10-04T20:47:39.318Z,31.43
2022-10-04T20:50:26.963Z,31.47
2022-10-04T20:52:57.209Z,31.50
2022-10-04T20:55:28.131Z,31.38
2022-10-04T20:57:59.773Z,31.48
2022-10-04T21:00:28.148Z,31.46
2022-10-04T21:03:09.011Z,31.37
2022-10-04T21:05:36.672Z,31.28
2022-10-04T21:08:14.085Z,31.59
2022-10-04T21:11:01.404Z,31.66
2022-10-04T21:13:42.284Z,31.48
2022-10-04T21:16:10.383Z,31.38
2022-10-04T21:18:37.632Z,31.38
2022-10-04T21:21:04.968Z,31.25
2022-10-04T21:23:33.883Z,31.54
2022-10-04T21:26:23.569Z,31.29
2022-10-04T21:28:54.765Z,31.52
2022-10-04T21:31:22.090Z,31.44
2022-10-04T21:33:49.607Z,31.56
2022-10-04T21:36:16.910Z,31.68
2022-10-04T21:38:44.200Z,31.58
2022-10-04T21:41:11.681Z,31.33
2022-10-04T21:43:38.911Z,31.23
2022-10-04T21:46:06.382Z,31.53
2022-10-04T21:48:33.750Z,31.37
2022-10-04T21:51:01.018Z,31.38
2022-10-04T21:53:28.200Z,31.46
2022-10-04T21:55:55.523Z,31.56
2022-10-04T21:58:22.707Z,31.65
2022-10-04T22:00:50.003Z,31.44
2022-10-04T22:03:17.231Z,31.43
2022-10-04T22:05:44.584Z,31.37
2022-10-04T22:08:11.923Z,31.64
2022-10-04T22:10:40.199Z,31.53
2022-10-04T22:13:07.501Z,31.51
2022-10-04T22:15:34.858Z,31.21
2022-10-04T22:18:02.125Z,31.46
2022-10-04T22:20:29.818Z,31.32
2022-10-04T22:22:58.143Z,31.41
2022-10-04T22:25:27.024Z,31.54
2022-10-04T22:27:54.542Z,31.43
2022-10-04T22:30:24.136Z,31.27
2022-10-04T22:32:53.777Z,31.48
2022-10-04T22:35:21.134Z,31.60
2022-10-04T22:37:48.776Z,31.86
2022-10-04T22:40:23.841Z,31.60
2022-10-04T22:42:57.600Z,31.35
2022-10-04T22:45:26.878Z,31.52
2022-10-04T22:47:56.066Z,31.56
2022-10-04T22:50:34.023Z,31.42
2022-10-04T22:53:12.711Z,31.44
2022-10-04T22:55:41.363Z,31.52
2022-10-04T22:58:15.199Z,31.48
2022-10-04T23:00:43.131Z,31.41
2022-10-04T23:03:31.393Z,31.46
2022-10-04T23:05:59.603Z,31.32
2022-10-04T23:08:27.092Z,31.44
2022-10-04T23:10:58.560Z,31.52
2022-10-04T23:13:26.923Z,31.58
2022-10-04T23:15:57.682Z,31.30
2022-10-04T23:18:25.105Z,31.36
2022-10-04T23:20:55.166Z,31.38
2022-10-04T23:23:22.509Z,31.56
2022-10-04T23:25:50.113Z,31.54
2022-10-04T23:28:18.756Z,31.55
2022-10-04T23:30:48.250Z,31.53
2022-10-04T23:33:20.161Z,31.54
2022-10-04T23:35:48.297Z,31.42
2022-10-04T23:38:16.287Z,31.58
2022-10-04T23:40:44.917Z,31.42
2022-10-04T23:43:31.878Z,31.46
2022-10-04T23:45:59.348Z,31.62
2022-10-04T23:48:27.531Z,31.53
2022-10-04T23:50:56.492Z,31.51
2022-10-04T23:53:26.874Z,31.47
2022-10-04T23:55:55.179Z,31.55
2022-10-04T23:58:42.656Z,31.39
